Time;durP1;ratioP1;P1;durP2;ratioP2;P2;SDS_P1;SDS_P2;PMS_P1;PMS_P2;Temp;Humidity;BMP_temperature;BMP_pressure;BME280_temperature;BME280_humidity;BME280_pressure;Samples;Min_cycle;Max_cycle;Signal;HPM_P1;HPM_P2
2023/03/19 00:01:55;;;;;;;3.20;2.63;;;11.10;1.00;;;;;;4995495;28;20525;-87
2023/03/19 00:04:21;;;;;;;3.65;2.67;;;11.10;1.00;;;;;;4996628;28;20505;-87
2023/03/19 00:06:46;;;;;;;3.30;2.75;;;11.10;1.00;;;;;;4992998;28;20476;-87
2023/03/19 00:09:12;;;;;;;2.70;2.50;;;11.00;1.00;;;;;;4994062;28;20391;-86
2023/03/19 00:11:37;;;;;;;3.42;2.45;;;10.90;93.30;;;;;;4997063;28;20465;-87
2023/03/19 00:14:03;;;;;;;4.07;2.60;;;10.80;99.90;;;;;;5006337;28;20422;-86
2023/03/19 00:16:29;;;;;;;2.90;2.53;;;10.90;99.90;;;;;;5018393;28;20453;-87
2023/03/19 00:18:54;;;;;;;3.83;2.37;;;10.90;1.00;;;;;;5018710;28;20409;-87
2023/03/19 00:21:20;;;;;;;3.23;2.50;;;10.90;99.90;;;;;;5000844;28;20840;-87
2023/03/19 00:23:46;;;;;;;3.27;2.57;;;10.80;1.00;;;;;;4992927;28;20399;-87
2023/03/19 00:26:12;;;;;;;3.50;2.50;;;10.90;1.00;;;;;;4992538;28;20399;-86
2023/03/19 00:28:37;;;;;;;3.90;2.50;;;11.00;99.90;;;;;;4992523;28;20402;-86
2023/03/19 00:31:15;;;;;;;3.00;2.70;;;11.00;99.90;;;;;;4994557;28;20811;-86
2023/03/19 00:33:41;;;;;;;4.15;2.60;;;11.00;99.20;;;;;;4992705;28;20916;-85
2023/03/19 00:36:08;;;;;;;2.88;2.30;;;11.10;99.90;;;;;;4992639;28;20398;-86
2023/03/19 00:38:34;;;;;;;2.90;2.50;;;11.10;1.00;;;;;;4992715;28;20494;-86
2023/03/19 00:41:01;;;;;;;3.67;2.25;;;11.10;1.00;;;;;;4992298;28;20414;-85
2023/03/19 00:43:26;;;;;;;4.25;2.60;;;11.00;1.00;;;;;;4993249;28;20393;-85
2023/03/19 00:45:53;;;;;;;2.88;2.58;;;10.80;99.90;;;;;;5011106;28;20382;-86
2023/03/19 00:48:20;;;;;;;2.90;2.40;;;10.80;99.90;;;;;;4993062;28;20490;-86
2023/03/19 00:50:46;;;;;;;2.80;2.30;;;10.80;62.70;;;;;;4993094;28;20394;-86
2023/03/19 00:53:12;;;;;;;3.60;2.50;;;11.00;1.00;;;;;;5003043;28;20405;-85
2023/03/19 00:55:37;;;;;;;3.20;2.65;;;11.10;1.00;;;;;;5018321;28;20387;-86
2023/03/19 00:58:05;;;;;;;3.15;2.50;;;11.00;99.90;;;;;;5012569;28;20402;-86
2023/03/19 01:00:31;;;;;;;3.15;2.45;;;11.00;1.00;;;;;;4994373;28;20457;-85
2023/03/19 01:02:57;;;;;;;2.20;2.00;;;11.50;1.00;;;;;;4993183;28;20398;-85
2023/03/19 01:05:23;;;;;;;4.30;2.30;;;11.70;99.90;;;;;;4991494;28;20398;-85
2023/03/19 01:07:50;;;;;;;3.13;2.83;;;11.60;99.90;;;;;;4992788;28;20756;-86
2023/03/19 01:10:18;;;;;;;3.08;2.20;;;11.40;1.00;;;;;;4994828;28;21723;-85
2023/03/19 01:12:44;;;;;;;3.00;2.60;;;11.50;99.90;;;;;;5011539;28;20511;-85
2023/03/19 01:15:10;;;;;;;3.80;2.60;;;11.30;99.90;;;;;;5012600;28;20898;-85
2023/03/19 01:17:36;;;;;;;3.85;3.55;;;11.30;1.00;;;;;;4996947;28;20403;-85
2023/03/19 01:20:02;;;;;;;3.70;3.00;;;11.40;1.00;;;;;;4991298;28;20417;-85
2023/03/19 01:22:28;;;;;;;3.45;2.90;;;11.30;1.00;;;;;;4992035;28;20395;-85
2023/03/19 01:24:54;;;;;;;3.30;2.50;;;11.20;1.00;;;;;;4992617;28;20387;-85
2023/03/19 01:27:20;;;;;;;3.00;2.40;;;11.20;1.00;;;;;;4994329;28;20394;-85
2023/03/19 01:29:46;;;;;;;2.70;2.50;;;11.10;99.90;;;;;;4994435;28;20398;-85
2023/03/19 01:32:12;;;;;;;2.70;2.40;;;11.10;99.90;;;;;;4994259;28;20398;-85
2023/03/19 01:34:37;;;;;;;2.20;2.00;;;11.20;99.90;;;;;;4994475;28;20399;-86
2023/03/19 01:37:03;;;;;;;4.85;2.40;;;11.10;1.00;;;;;;4994456;28;20394;-86
2023/03/19 01:39:29;;;;;;;2.73;2.33;;;11.20;1.00;;;;;;4993319;28;20441;-85
2023/03/19 01:41:54;;;;;;;5.00;2.30;;;11.30;1.00;;;;;;5014419;28;20449;-86
2023/03/19 01:44:29;;;;;;;2.90;2.30;;;11.30;1.00;;;;;;4996157;28;20406;-86
2023/03/19 01:46:56;;;;;;;4.03;2.70;;;11.20;1.00;;;;;;4990256;28;20406;-86
2023/03/19 01:49:23;;;;;;;2.42;2.20;;;11.20;1.00;;;;;;4992029;28;20390;-86
2023/03/19 01:51:49;;;;;;;3.90;2.00;;;11.30;1.00;;;;;;4991695;28;20409;-86
2023/03/19 01:54:19;;;;;;;3.10;2.30;;;11.40;1.00;;;;;;4990783;28;20390;-86
2023/03/19 01:56:47;;;;;;;2.40;1.70;;;11.40;99.90;;;;;;4991703;28;20440;-85
2023/03/19 01:59:21;;;;;;;3.60;2.00;;;11.50;99.90;;;;;;4992859;28;20851;-85
2023/03/19 02:02:01;;;;;;;1.95;1.80;;;11.30;1.00;;;;;;4992809;28;20559;-86
2023/03/19 02:04:30;;;;;;;3.87;2.13;;;11.30;1.00;;;;;;4972263;28;20570;-87
2023/03/19 02:06:57;;;;;;;2.90;2.13;;;11.30;1.00;;;;;;4978628;28;20429;-85
2023/03/19 02:09:25;;;;;;;2.30;2.10;;;11.20;1.00;;;;;;4991747;28;20536;-86
2023/03/19 02:11:51;;;;;;;3.75;1.80;;;11.30;1.00;;;;;;4991136;28;20403;-86
2023/03/19 02:14:17;;;;;;;2.67;2.20;;;11.30;99.90;;;;;;4992687;28;20473;-86
2023/03/19 02:16:43;;;;;;;2.40;2.00;;;11.40;1.00;;;;;;4990852;28;20398;-86
2023/03/19 02:19:14;;;;;;;2.30;1.90;;;11.40;1.00;;;;;;4990491;28;20448;-86
2023/03/19 02:21:40;;;;;;;2.15;1.90;;;11.40;1.00;;;;;;4990905;28;20430;-86
2023/03/19 02:24:16;;;;;;;2.28;1.42;;;11.50;1.00;;;;;;4989210;28;20821;-86
2023/03/19 02:26:43;;;;;;;2.65;1.75;;;11.80;9.30;;;;;;4991692;28;20904;-86
2023/03/19 02:29:09;;;;;;;1.60;1.48;;;11.80;6.00;;;;;;4991405;28;20402;-86
2023/03/19 02:31:35;;;;;;;3.50;1.85;;;11.90;99.90;;;;;;4990808;28;20403;-87
2023/03/19 02:34:21;;;;;;;1.90;1.60;;;11.80;1.00;;;;;;4998185;28;20391;-86
2023/03/19 02:36:50;;;;;;;1.90;1.80;;;11.70;1.00;;;;;;4991176;28;20391;-86
2023/03/19 02:39:34;;;;;;;3.58;2.00;;;11.60;47.20;;;;;;4995163;28;20383;-86
2023/03/19 02:42:01;;;;;;;2.90;1.92;;;11.70;99.90;;;;;;4995269;28;20437;-86
2023/03/19 02:44:26;;;;;;;1.67;1.58;;;11.50;1.00;;;;;;4995634;28;20386;-86
2023/03/19 02:46:52;;;;;;;4.10;1.75;;;11.40;1.00;;;;;;4993609;28;20401;-86
2023/03/19 02:49:17;;;;;;;2.03;1.60;;;11.30;1.00;;;;;;4995967;28;20414;-86
2023/03/19 02:51:43;;;;;;;2.87;1.90;;;11.20;1.00;;;;;;4997398;28;20421;-87
2023/03/19 02:54:09;;;;;;;2.10;1.70;;;11.10;19.90;;;;;;4996391;28;20410;-86
2023/03/19 02:56:35;;;;;;;2.42;1.80;;;11.10;1.00;;;;;;4994748;28;20386;-86
2023/03/19 02:59:00;;;;;;;1.60;1.40;;;10.90;1.00;;;;;;4994994;28;20398;-86
2023/03/19 03:01:26;;;;;;;1.70;1.60;;;10.80;33.00;;;;;;4996688;28;20456;-86
2023/03/19 03:03:51;;;;;;;2.67;1.70;;;10.80;99.90;;;;;;4994944;28;20485;-86
2023/03/19 03:06:17;;;;;;;2.13;1.70;;;10.60;99.90;;;;;;5011346;28;20441;-86
2023/03/19 03:08:43;;;;;;;2.43;1.73;;;10.70;99.90;;;;;;4996384;28;20424;-86
2023/03/19 03:11:08;;;;;;;2.67;1.98;;;10.80;22.80;;;;;;5001508;28;20464;-86
2023/03/19 03:13:34;;;;;;;3.13;2.00;;;10.70;9.50;;;;;;5008345;28;20429;-86
2023/03/19 03:16:00;;;;;;;2.75;1.70;;;10.70;1.00;;;;;;5007013;28;20383;-86
2023/03/19 03:18:26;;;;;;;3.55;1.52;;;10.80;1.00;;;;;;5009757;28;20403;-86
2023/03/19 03:20:52;;;;;;;2.88;1.60;;;10.80;1.00;;;;;;5000609;28;20414;-87
2023/03/19 03:23:18;;;;;;;1.97;1.50;;;10.80;1.00;;;;;;4998979;28;20532;-86
2023/03/19 03:25:44;;;;;;;2.80;1.70;;;10.70;1.00;;;;;;4995702;28;20426;-86
2023/03/19 03:28:09;;;;;;;1.73;1.63;;;10.70;32.30;;;;;;4995718;28;20394;-86
2023/03/19 03:30:35;;;;;;;2.73;1.70;;;10.70;24.80;;;;;;4995370;28;20414;-86
2023/03/19 03:33:01;;;;;;;2.90;1.47;;;10.50;34.10;;;;;;4993978;28;20406;-86
2023/03/19 03:35:27;;;;;;;2.10;1.58;;;10.50;91.10;;;;;;4994115;28;20753;-87
2023/03/19 03:37:52;;;;;;;2.07;1.60;;;10.60;40.10;;;;;;4995748;28;20405;-86
2023/03/19 03:40:19;;;;;;;2.30;1.60;;;10.60;6.80;;;;;;4993632;28;20387;-86
2023/03/19 03:42:44;;;;;;;2.53;1.42;;;10.60;24.60;;;;;;4994062;28;20394;-86
2023/03/19 03:45:11;;;;;;;3.15;1.70;;;10.60;1.00;;;;;;5001720;28;20383;-86
2023/03/19 03:47:36;;;;;;;1.80;1.67;;;10.60;1.00;;;;;;4992885;28;20399;-87
2023/03/19 03:50:06;;;;;;;3.67;1.73;;;10.60;19.40;;;;;;4993737;28;20394;-87
2023/03/19 03:52:32;;;;;;;2.40;1.80;;;10.50;1.00;;;;;;4994049;28;20391;-87
2023/03/19 03:54:59;;;;;;;2.22;1.80;;;10.50;37.60;;;;;;4993606;28;20473;-86
2023/03/19 03:57:25;;;;;;;3.20;1.95;;;10.60;1.00;;;;;;4994786;28;20877;-86
2023/03/19 03:59:50;;;;;;;1.60;1.50;;;10.60;1.00;;;;;;4994599;28;20452;-86
2023/03/19 04:02:16;;;;;;;1.73;1.60;;;10.60;1.00;;;;;;5002718;28;20394;-88
2023/03/19 04:04:41;;;;;;;2.37;1.90;;;10.60;22.00;;;;;;5010458;28;20844;-86
2023/03/19 04:07:07;;;;;;;2.35;1.90;;;10.60;1.00;;;;;;4993864;28;20403;-86
2023/03/19 04:09:33;;;;;;;2.30;1.90;;;10.70;1.00;;;;;;4994616;28;20433;-86
2023/03/19 04:11:59;;;;;;;3.10;1.90;;;10.60;1.00;;;;;;5010304;28;21024;-86
2023/03/19 04:14:25;;;;;;;4.53;1.90;;;10.60;1.00;;;;;;5002825;28;20453;-86
2023/03/19 04:16:51;;;;;;;2.42;1.63;;;10.70;1.00;;;;;;4994666;28;20419;-86
2023/03/19 04:19:18;;;;;;;1.73;1.60;;;10.70;1.00;;;;;;4993688;28;20410;-86
2023/03/19 04:21:43;;;;;;;1.95;1.60;;;10.70;1.00;;;;;;4995057;28;20395;-87
2023/03/19 04:24:09;;;;;;;2.03;1.80;;;10.70;1.00;;;;;;4991596;28;20477;-87
2023/03/19 04:26:36;;;;;;;1.65;1.50;;;10.70;1.00;;;;;;5002256;28;20398;-87
2023/03/19 04:29:01;;;;;;;2.80;1.70;;;10.60;1.00;;;;;;4979293;28;20395;-87
2023/03/19 04:31:27;;;;;;;2.42;1.52;;;10.60;1.00;;;;;;4993210;28;20410;-86
2023/03/19 04:33:53;;;;;;;2.90;1.90;;;10.60;1.00;;;;;;4993676;28;20421;-87
2023/03/19 04:36:18;;;;;;;2.20;1.70;;;10.50;1.00;;;;;;4993401;28;20781;-87
2023/03/19 04:38:44;;;;;;;3.00;1.60;;;10.60;1.00;;;;;;4993461;28;20426;-87
2023/03/19 04:41:10;;;;;;;3.60;1.70;;;10.50;1.00;;;;;;4994423;28;20386;-87
2023/03/19 04:43:36;;;;;;;1.50;1.40;;;10.50;1.00;;;;;;4992111;28;20410;-86
2023/03/19 04:46:01;;;;;;;3.00;1.70;;;10.50;1.00;;;;;;4992322;28;20768;-87
2023/03/19 04:48:27;;;;;;;2.53;1.90;;;10.40;1.00;;;;;;5010620;28;20455;-86
2023/03/19 04:50:55;;;;;;;1.98;1.60;;;10.40;1.00;;;;;;5016898;28;20406;-87
2023/03/19 04:53:21;;;;;;;3.53;1.88;;;10.40;52.80;;;;;;5017157;28;20446;-87
2023/03/19 04:55:47;;;;;;;2.35;1.75;;;10.20;6.70;;;;;;5004013;28;20464;-87
2023/03/19 04:58:14;;;;;;;3.40;1.70;;;10.30;1.00;;;;;;4992999;28;20395;-86
2023/03/19 05:00:40;;;;;;;3.90;2.00;;;10.20;4.40;;;;;;4993791;28;20417;-86
2023/03/19 05:03:06;;;;;;;2.63;1.83;;;10.10;51.90;;;;;;4990269;28;20404;-86
2023/03/19 05:05:31;;;;;;;2.80;1.90;;;10.00;99.90;;;;;;4992001;28;20816;-87
2023/03/19 05:07:57;;;;;;;2.20;1.90;;;9.90;99.90;;;;;;4992577;28;20449;-86
2023/03/19 05:10:22;;;;;;;2.60;1.60;;;10.00;99.90;;;;;;4996052;28;20802;-86
2023/03/19 05:12:48;;;;;;;3.00;1.60;;;10.00;99.90;;;;;;5014124;28;20905;-87
2023/03/19 05:15:14;;;;;;;2.58;1.90;;;10.00;96.90;;;;;;4993386;28;20387;-86
2023/03/19 05:17:40;;;;;;;2.72;1.90;;;10.10;79.10;;;;;;4992192;28;20876;-86
2023/03/19 05:20:06;;;;;;;1.80;1.50;;;10.10;78.00;;;;;;4992707;28;20390;-86
2023/03/19 05:22:31;;;;;;;1.92;1.73;;;10.00;90.40;;;;;;4992790;28;20391;-86
2023/03/19 05:24:57;;;;;;;2.10;1.90;;;9.90;89.40;;;;;;4992770;28;20394;-86
2023/03/19 05:27:22;;;;;;;3.00;1.80;;;9.90;99.90;;;;;;4991927;28;20494;-86
2023/03/19 05:29:48;;;;;;;2.08;1.88;;;10.00;76.40;;;;;;4991799;28;20780;-87
2023/03/19 05:32:14;;;;;;;2.15;1.80;;;9.90;95.60;;;;;;4993348;28;20785;-86
2023/03/19 05:34:40;;;;;;;2.40;1.70;;;9.90;95.80;;;;;;4992349;28;20391;-86
2023/03/19 05:37:07;;;;;;;2.00;1.80;;;9.90;58.90;;;;;;4992630;28;20391;-86
2023/03/19 05:39:33;;;;;;;2.63;2.40;;;9.90;59.10;;;;;;4992455;28;20394;-86
2023/03/19 05:41:58;;;;;;;3.47;2.43;;;10.00;56.40;;;;;;4993117;28;20462;-86
2023/03/19 05:44:24;;;;;;;3.20;2.20;;;9.90;15.50;;;;;;4993465;28;20390;-87
2023/03/19 05:46:49;;;;;;;3.63;2.38;;;10.00;1.00;;;;;;5006721;28;20892;-86
2023/03/19 05:49:15;;;;;;;2.42;2.22;;;9.90;29.80;;;;;;4993694;28;20395;-87
2023/03/19 05:51:40;;;;;;;3.20;2.50;;;9.90;35.10;;;;;;4994043;28;20413;-87
2023/03/19 05:54:06;;;;;;;3.90;2.60;;;9.90;42.20;;;;;;4993663;28;20409;-86
2023/03/19 05:56:31;;;;;;;2.30;2.10;;;9.80;75.40;;;;;;4991778;28;20402;-87
2023/03/19 05:58:57;;;;;;;2.40;2.00;;;9.70;99.90;;;;;;4993050;28;20966;-87
2023/03/19 06:01:23;;;;;;;2.40;2.10;;;9.60;99.90;;;;;;4993629;28;20489;-86
2023/03/19 06:03:48;;;;;;;2.95;2.25;;;9.70;89.40;;;;;;4995985;28;20434;-86
2023/03/19 06:06:15;;;;;;;2.63;2.23;;;9.60;99.90;;;;;;4992793;28;20398;-86
2023/03/19 06:08:41;;;;;;;3.22;2.40;;;9.60;99.90;;;;;;5007780;28;20389;-86
2023/03/19 06:11:07;;;;;;;3.92;2.22;;;9.60;99.90;;;;;;4994636;28;20410;-86
2023/03/19 06:13:33;;;;;;;3.45;2.10;;;9.50;99.90;;;;;;4993342;28;20397;-86
2023/03/19 06:15:59;;;;;;;2.10;1.80;;;9.40;99.90;;;;;;4991893;28;20493;-86
2023/03/19 06:18:25;;;;;;;1.90;1.80;;;9.50;55.20;;;;;;4992557;28;20919;-87
2023/03/19 06:20:50;;;;;;;2.37;1.90;;;9.60;57.50;;;;;;4996121;28;20414;-86
2023/03/19 06:23:16;;;;;;;2.20;2.00;;;9.60;99.90;;;;;;4995521;28;20760;-87
2023/03/19 06:25:42;;;;;;;2.70;2.10;;;9.60;84.20;;;;;;4985668;28;20412;-86
2023/03/19 06:28:07;;;;;;;3.10;2.28;;;9.50;81.60;;;;;;4992392;28;20464;-86
2023/03/19 06:30:33;;;;;;;2.40;2.20;;;9.50;99.90;;;;;;4991913;28;20406;-87
2023/03/19 06:32:59;;;;;;;2.95;2.20;;;9.40;99.90;;;;;;4991878;28;20387;-87
2023/03/19 06:35:25;;;;;;;2.58;2.13;;;9.40;99.90;;;;;;4992218;28;20437;-86
2023/03/19 06:37:51;;;;;;;2.55;2.17;;;9.50;99.90;;;;;;4991495;28;20422;-86
2023/03/19 06:40:17;;;;;;;2.55;2.22;;;9.40;99.90;;;;;;4993088;28;20403;-87
2023/03/19 06:42:44;;;;;;;3.25;2.42;;;9.60;50.50;;;;;;4991343;28;20390;-87
2023/03/19 06:45:10;;;;;;;4.30;2.50;;;9.60;70.80;;;;;;4991793;28;20753;-87
2023/03/19 06:47:36;;;;;;;2.60;2.20;;;9.80;24.50;;;;;;4991984;28;20383;-87
2023/03/19 06:50:02;;;;;;;3.03;2.13;;;9.80;1.00;;;;;;4993115;28;20902;-87
2023/03/19 06:52:27;;;;;;;2.50;2.17;;;9.80;15.00;;;;;;4991252;28;20436;-87
2023/03/19 06:54:53;;;;;;;2.70;2.10;;;9.90;1.00;;;;;;4995898;28;20388;-87
2023/03/19 06:57:18;;;;;;;2.80;2.30;;;9.90;1.00;;;;;;4992171;28;20394;-86
2023/03/19 06:59:44;;;;;;;3.00;2.10;;;9.90;1.00;;;;;;4991426;28;20390;-87
2023/03/19 07:02:11;;;;;;;2.10;1.90;;;10.00;1.00;;;;;;4992675;28;20391;-87
2023/03/19 07:04:36;;;;;;;3.20;2.10;;;10.00;1.00;;;;;;4991704;28;20419;-87
2023/03/19 07:07:04;;;;;;;3.17;2.08;;;10.30;1.00;;;;;;5007182;28;20406;-87
2023/03/19 07:09:29;;;;;;;3.30;2.20;;;10.20;1.00;;;;;;4991121;28;20869;-88
2023/03/19 07:11:55;;;;;;;3.80;2.30;;;10.30;1.00;;;;;;4991248;28;20434;-87
2023/03/19 07:14:20;;;;;;;2.30;2.10;;;10.50;1.00;;;;;;4991268;28;20387;-87
2023/03/19 07:16:46;;;;;;;3.45;2.10;;;10.70;1.00;;;;;;4991426;28;20401;-87
2023/03/19 07:19:11;;;;;;;3.20;2.20;;;10.80;1.00;;;;;;4990944;28;20426;-88
2023/03/19 07:21:37;;;;;;;3.10;2.50;;;10.90;1.00;;;;;;4978449;28;20409;-88
2023/03/19 07:24:03;;;;;;;2.30;2.10;;;11.00;1.00;;;;;;4973832;28;20400;-88
2023/03/19 07:26:29;;;;;;;2.50;2.30;;;11.00;1.00;;;;;;4993217;28;20415;-88
2023/03/19 07:28:55;;;;;;;3.13;2.15;;;11.10;99.90;;;;;;4993355;28;20395;-88
2023/03/19 07:31:20;;;;;;;3.22;2.00;;;11.10;99.90;;;;;;4996394;28;20772;-88
2023/03/19 07:33:46;;;;;;;3.22;2.28;;;11.20;99.90;;;;;;4997398;28;20441;-87
2023/03/19 07:36:11;;;;;;;3.03;2.10;;;11.30;46.60;;;;;;4994798;28;20390;-88
2023/03/19 07:38:37;;;;;;;2.87;2.10;;;11.30;1.00;;;;;;4999265;28;20402;-88
2023/03/19 07:41:03;;;;;;;3.45;2.17;;;11.30;1.00;;;;;;4998792;28;20402;-88
2023/03/19 07:43:30;;;;;;;2.70;2.40;;;11.30;1.00;;;;;;4995088;28;20425;-88
2023/03/19 07:45:56;;;;;;;4.00;2.20;;;11.30;9.70;;;;;;4994486;28;20434;-88
2023/03/19 07:48:21;;;;;;;2.70;2.40;;;11.30;65.80;;;;;;5010013;28;20402;-88
2023/03/19 07:50:50;;;;;;;2.78;2.20;;;11.40;99.90;;;;;;4997790;28;20526;-88
2023/03/19 07:53:15;;;;;;;2.90;2.60;;;11.60;1.00;;;;;;4995838;28;20398;-87
2023/03/19 07:55:41;;;;;;;3.20;2.40;;;11.90;99.90;;;;;;4991636;28;20937;-90
2023/03/19 07:58:06;;;;;;;2.83;2.13;;;12.10;99.90;;;;;;4988270;28;20398;-89
2023/03/19 08:00:32;;;;;;;2.70;2.00;;;12.90;1.00;;;;;;5009163;28;20406;-89
2023/03/19 08:02:57;;;;;;;3.65;2.15;;;13.30;99.90;;;;;;4993941;28;20754;-89
2023/03/19 08:05:23;;;;;;;3.67;2.22;;;13.50;99.90;;;;;;4994840;28;20423;-89
2023/03/19 08:07:50;;;;;;;3.50;2.45;;;13.60;51.30;;;;;;4998540;28;20533;-89
2023/03/19 08:10:16;;;;;;;4.27;2.10;;;13.60;1.00;;;;;;4995327;28;20474;-89
2023/03/19 08:12:41;;;;;;;4.28;2.10;;;13.70;1.00;;;;;;4992248;28;20410;-89
2023/03/19 08:15:10;;;;;;;2.60;2.30;;;13.70;1.00;;;;;;5007829;28;20402;-89
2023/03/19 08:17:39;;;;;;;4.00;2.05;;;13.80;1.00;;;;;;4990194;28;20391;-89
2023/03/19 08:20:08;;;;;;;2.55;2.10;;;13.90;1.00;;;;;;4996863;28;20402;-89
2023/03/19 08:22:35;;;;;;;3.50;2.20;;;13.90;1.00;;;;;;4993801;28;20485;-88
2023/03/19 08:25:08;;;;;;;5.28;2.45;;;15.00;1.00;;;;;;5011974;28;20399;-90
2023/03/19 08:27:34;;;;;;;2.58;2.33;;;14.00;1.00;;;;;;5009341;28;20382;-88
2023/03/19 08:30:05;;;;;;;3.95;2.00;;;15.10;1.00;;;;;;5013737;28;20414;-89
2023/03/19 08:32:30;;;;;;;6.47;2.50;;;14.20;1.00;;;;;;5004358;28;20420;-88
2023/03/19 08:34:56;;;;;;;2.90;2.38;;;14.40;1.00;;;;;;5003410;28;20402;-89
2023/03/19 08:37:24;;;;;;;4.97;2.20;;;14.50;1.00;;;;;;5001060;28;20383;-90
2023/03/19 08:39:51;;;;;;;3.22;2.33;;;15.90;1.00;;;;;;4997915;28;20409;-90
2023/03/19 08:42:17;;;;;;;2.92;2.08;;;14.50;1.00;;;;;;4997942;28;20406;-88
2023/03/19 08:44:43;;;;;;;4.00;2.20;;;14.90;1.00;;;;;;4995081;28;20760;-89
2023/03/19 08:47:08;;;;;;;3.90;1.90;;;14.30;1.00;;;;;;5011945;28;20414;-90
2023/03/19 08:49:34;;;;;;;3.03;1.90;;;15.20;1.00;;;;;;5007205;28;20395;-91
2023/03/19 08:52:00;;;;;;;3.03;2.22;;;14.80;1.00;;;;;;4994300;28;20550;-89
2023/03/19 08:54:25;;;;;;;5.25;2.03;;;14.40;1.00;;;;;;4997583;28;20394;-88
2023/03/19 08:56:51;;;;;;;3.13;1.90;;;14.90;1.00;;;;;;4996908;28;20417;-87
2023/03/19 08:59:26;;;;;;;4.00;2.10;;;14.80;1.00;;;;;;4994644;28;20476;-85
2023/03/19 09:01:52;;;;;;;4.57;2.03;;;16.30;1.00;;;;;;4990806;28;20813;-86
2023/03/19 09:04:22;;;;;;;2.40;1.90;;;16.00;1.00;;;;;;4988132;28;20485;-90
2023/03/19 09:06:50;;;;;;;3.08;2.00;;;14.70;1.00;;;;;;4990473;28;20392;-89
2023/03/19 09:09:23;;;;;;;2.28;1.75;;;14.60;1.00;;;;;;4989506;28;21244;-89
2023/03/19 09:11:49;;;;;;;3.60;2.00;;;14.70;1.00;;;;;;4990821;28;20415;-88
2023/03/19 09:14:19;;;;;;;4.30;2.10;;;14.90;1.00;;;;;;4994279;28;20421;-88
2023/03/19 09:16:44;;;;;;;3.75;2.13;;;15.70;1.00;;;;;;4987704;28;20461;-86
2023/03/19 09:19:10;;;;;;;3.80;2.23;;;14.50;1.00;;;;;;4984639;28;20419;-82
2023/03/19 09:21:36;;;;;;;3.80;2.30;;;14.70;1.00;;;;;;4996310;28;20398;-84
2023/03/19 09:24:02;;;;;;;4.05;2.30;;;14.50;1.00;;;;;;4996581;28;20391;-83
2023/03/19 09:26:28;;;;;;;2.92;2.05;;;14.50;1.00;;;;;;4994962;28;20935;-84
2023/03/19 09:28:53;;;;;;;3.57;2.13;;;14.40;1.00;;;;;;4994550;28;20402;-83
2023/03/19 09:31:19;;;;;;;3.80;2.40;;;14.60;1.00;;;;;;4986697;28;20511;-84
2023/03/19 09:33:45;;;;;;;4.32;2.28;;;14.80;1.00;;;;;;4985081;28;20417;-83
2023/03/19 09:36:10;;;;;;;2.80;1.95;;;14.90;1.00;;;;;;4987087;28;20420;-83
2023/03/19 09:38:36;;;;;;;6.00;2.10;;;14.90;1.00;;;;;;4984435;28;20395;-84
2023/03/19 09:41:13;;;;;;;2.60;2.23;;;14.70;1.00;;;;;;4990289;28;20398;-85
2023/03/19 09:43:53;;;;;;;3.00;1.83;;;14.90;1.00;;;;;;4998679;28;20481;-84
2023/03/19 09:46:27;;;;;;;2.35;1.60;;;14.90;1.00;;;;;;4999756;28;20386;-85
2023/03/19 09:48:59;;;;;;;4.70;2.10;;;14.90;1.00;;;;;;5015421;28;20430;-84
2023/03/19 09:51:34;;;;;;;3.00;2.00;;;14.70;1.00;;;;;;5007129;28;20410;-83
2023/03/19 09:54:06;;;;;;;2.92;1.95;;;14.80;1.00;;;;;;5000003;28;20417;-84
2023/03/19 09:56:32;;;;;;;4.25;2.00;;;14.70;1.00;;;;;;5004168;28;20418;-84
2023/03/19 09:58:58;;;;;;;3.83;2.10;;;15.00;1.00;;;;;;5000060;28;20398;-83
2023/03/19 10:01:33;;;;;;;2.85;2.00;;;15.00;1.00;;;;;;4997258;28;20439;-84
2023/03/19 10:04:32;;;;;;;4.60;1.90;;;14.70;1.00;;;;;;4995815;28;20406;-83
2023/03/19 10:07:22;;;;;;;3.20;2.00;;;14.70;1.00;;;;;;4995306;28;20398;-83
2023/03/19 10:10:15;;;;;;;4.00;1.60;;;15.00;1.00;;;;;;5006277;28;20434;-84
2023/03/19 10:13:22;;;;;;;4.55;1.98;;;15.10;1.00;;;;;;4975516;28;20427;-84
2023/03/19 10:15:51;;;;;;;2.83;1.70;;;15.20;1.00;;;;;;4991862;28;20392;-83
2023/03/19 10:18:20;;;;;;;2.85;1.70;;;15.20;1.00;;;;;;4976468;28;20385;-84
2023/03/19 10:21:02;;;;;;;2.30;1.45;;;15.00;1.00;;;;;;4993211;28;20402;-83
2023/03/19 10:23:52;;;;;;;3.17;1.83;;;14.80;1.00;;;;;;4994524;28;20469;-82
2023/03/19 10:26:20;;;;;;;3.08;1.90;;;14.80;1.00;;;;;;4993614;28;20426;-83
2023/03/19 10:29:15;;;;;;;2.05;1.60;;;14.60;1.00;;;;;;4995318;28;20398;-84
2023/03/19 10:32:07;;;;;;;2.30;1.70;;;14.90;1.00;;;;;;4996002;28;20457;-84
2023/03/19 10:34:40;;;;;;;3.15;1.80;;;14.70;1.00;;;;;;5010293;28;20457;-83
2023/03/19 10:37:12;;;;;;;3.08;1.67;;;14.50;1.00;;;;;;4994518;28;20425;-83
2023/03/19 10:39:40;;;;;;;2.55;1.70;;;14.60;1.00;;;;;;4993543;28;20394;-83
2023/03/19 10:42:27;;;;;;;3.03;1.65;;;14.80;1.00;;;;;;5000353;28;20406;-83
2023/03/19 10:45:13;;;;;;;1.98;1.50;;;14.70;1.00;;;;;;5003712;28;20414;-83
2023/03/19 10:47:40;;;;;;;3.75;1.77;;;14.80;1.00;;;;;;4992563;28;20398;-84
2023/03/19 10:50:13;;;;;;;3.80;2.13;;;15.00;1.00;;;;;;4995618;28;20437;-84
2023/03/19 10:52:42;;;;;;;3.40;2.00;;;15.40;1.00;;;;;;4994589;28;20425;-84
2023/03/19 10:55:14;;;;;;;2.88;2.00;;;15.50;1.00;;;;;;4996621;28;20440;-83
2023/03/19 10:57:42;;;;;;;3.28;2.10;;;15.70;1.00;;;;;;4999554;28;20399;-84
2023/03/19 11:00:21;;;;;;;2.90;1.80;;;15.90;1.00;;;;;;4996320;28;20902;-84
2023/03/19 11:02:51;;;;;;;2.25;1.80;;;16.00;1.00;;;;;;4996282;28;20400;-83
2023/03/19 11:05:20;;;;;;;2.20;2.05;;;15.60;1.00;;;;;;4994887;28;20401;-83
2023/03/19 11:07:50;;;;;;;3.22;2.10;;;15.60;1.00;;;;;;5001324;28;20844;-84
2023/03/19 11:10:17;;;;;;;2.63;2.20;;;15.70;1.00;;;;;;5002041;28;20783;-84
2023/03/19 11:12:51;;;;;;;1.87;1.60;;;15.70;1.00;;;;;;5000350;28;20484;-83
2023/03/19 11:15:22;;;;;;;2.00;1.80;;;15.90;1.00;;;;;;4998932;28;20901;-84
2023/03/19 11:17:56;;;;;;;2.63;1.73;;;16.10;1.00;;;;;;5004374;28;20401;-83
2023/03/19 11:20:29;;;;;;;2.60;1.80;;;15.80;1.00;;;;;;5002930;28;20406;-84
2023/03/19 11:23:01;;;;;;;1.98;1.50;;;16.00;1.00;;;;;;5002095;28;20406;-84
2023/03/19 11:25:40;;;;;;;2.57;1.60;;;15.90;1.00;;;;;;4997910;28;20425;-84
2023/03/19 11:28:15;;;;;;;2.20;1.67;;;15.80;1.00;;;;;;4999005;28;20952;-83
2023/03/19 11:30:52;;;;;;;2.33;1.40;;;15.30;1.00;;;;;;4996608;28;20501;-83
2023/03/19 11:33:31;;;;;;;2.88;1.50;;;15.40;1.00;;;;;;4998127;28;20383;-83
2023/03/19 11:36:40;;;;;;;2.90;1.60;;;15.40;1.00;;;;;;4996643;28;20398;-83
2023/03/19 11:39:13;;;;;;;2.00;1.80;;;15.50;1.00;;;;;;4995659;28;20402;-83
2023/03/19 11:42:00;;;;;;;3.55;1.70;;;15.40;1.00;;;;;;4999654;28;20408;-83
2023/03/19 11:44:46;;;;;;;2.88;2.20;;;15.60;1.00;;;;;;4997916;28;20409;-84
2023/03/19 11:47:42;;;;;;;3.10;1.77;;;15.50;1.00;;;;;;5000484;28;20401;-84
2023/03/19 11:50:29;;;;;;;2.95;1.67;;;15.50;1.00;;;;;;5000402;28;20402;-83
2023/03/19 11:53:16;;;;;;;3.85;1.88;;;15.30;1.00;;;;;;5000056;28;20471;-83
2023/03/19 11:56:13;;;;;;;3.67;1.70;;;15.50;1.00;;;;;;5000421;28;20390;-84
2023/03/19 11:59:12;;;;;;;3.73;2.40;;;15.40;1.00;;;;;;4996988;28;20395;-84
2023/03/19 12:01:56;;;;;;;2.28;1.95;;;15.60;1.00;;;;;;4997223;28;20457;-84
2023/03/19 12:04:42;;;;;;;4.43;2.05;;;15.40;1.00;;;;;;4998758;28;20446;-84
2023/03/19 12:07:08;;;;;;;3.85;2.10;;;15.50;1.00;;;;;;4996402;28;20849;-84
2023/03/19 12:09:45;;;;;;;2.22;1.85;;;15.70;1.00;;;;;;4998175;28;20405;-84
2023/03/19 12:12:39;;;;;;;4.00;2.28;;;15.70;1.00;;;;;;5016103;28;20495;-83
2023/03/19 12:15:28;;;;;;;3.03;1.80;;;15.50;1.00;;;;;;5018545;28;20446;-83
2023/03/19 12:18:05;;;;;;;3.67;2.10;;;16.00;1.00;;;;;;5007499;28;20422;-83
2023/03/19 12:20:34;;;;;;;2.08;1.75;;;16.20;1.00;;;;;;4996341;28;20475;-83
2023/03/19 12:23:15;;;;;;;4.40;2.60;;;16.10;1.00;;;;;;4997877;28;20804;-83
2023/03/19 12:26:03;;;;;;;2.72;2.17;;;16.10;1.00;;;;;;4996827;28;20395;-84
2023/03/19 12:29:16;;;;;;;2.78;2.53;;;16.10;1.00;;;;;;4998709;28;20409;-84
2023/03/19 12:32:17;;;;;;;2.10;1.85;;;15.80;1.00;;;;;;4996826;28;20418;-84
2023/03/19 12:34:51;;;;;;;2.55;1.90;;;15.50;1.00;;;;;;4987105;28;20391;-83
2023/03/19 12:37:26;;;;;;;2.50;2.00;;;15.50;1.00;;;;;;4996727;28;20955;-84
2023/03/19 12:40:14;;;;;;;2.78;2.22;;;15.50;1.00;;;;;;4997050;28;20382;-83
2023/03/19 12:42:40;;;;;;;2.05;1.75;;;15.40;1.00;;;;;;4989175;28;20382;-84
2023/03/19 12:45:43;;;;;;;2.67;2.35;;;15.20;1.00;;;;;;4983492;28;20406;-84
2023/03/19 12:48:11;;;;;;;4.03;2.50;;;15.10;1.00;;;;;;4956518;28;20408;-84
2023/03/19 12:50:40;;;;;;;4.82;2.60;;;14.90;1.00;;;;;;4981941;28;20820;-84
2023/03/19 12:53:15;;;;;;;2.40;1.95;;;14.90;45.10;;;;;;5001683;28;20395;-84
2023/03/19 12:55:49;;;;;;;3.17;2.37;;;14.90;99.90;;;;;;4998948;28;20456;-84
2023/03/19 12:58:38;;;;;;;3.72;2.50;;;14.90;99.90;;;;;;4999116;28;20391;-84
2023/03/19 13:01:13;;;;;;;2.40;2.20;;;14.80;99.90;;;;;;5008431;28;20792;-83
2023/03/19 13:04:17;;;;;;;4.57;2.70;;;14.60;99.90;;;;;;5015352;28;20390;-83
2023/03/19 13:06:55;;;;;;;3.70;2.63;;;14.70;1.00;;;;;;4996835;28;20953;-84
2023/03/19 13:09:30;;;;;;;3.55;2.33;;;14.50;1.00;;;;;;5000606;28;20402;-84